createdAt,value
2023-08-12T00:01:51.603Z,68.33
2023-08-12T00:04:19.210Z,67.24
2023-08-12T00:06:47.755Z,68.52
2023-08-12T00:09:16.464Z,68.46
2023-08-12T00:11:44.058Z,68.39
2023-08-12T00:14:12.264Z,69.21
2023-08-12T00:16:39.911Z,68.83
2023-08-12T00:19:09.879Z,68.94
2023-08-12T00:21:38.007Z,68.90
2023-08-12T00:24:06.105Z,69.75
2023-08-12T00:26:33.680Z,69.41
2023-08-12T00:29:01.421Z,68.29
2023-08-12T00:31:29.219Z,68.93
2023-08-12T00:33:57.431Z,68.63
2023-08-12T00:36:25.403Z,66.97
2023-08-12T00:38:53.063Z,68.62
2023-08-12T00:41:20.642Z,69.72
2023-08-12T00:43:48.290Z,69.19
2023-08-12T00:46:16.283Z,69.94
2023-08-12T00:48:43.982Z,70.56
2023-08-12T00:51:11.716Z,69.71
2023-08-12T00:53:40.756Z,70.08
2023-08-12T00:56:09.019Z,69.24
2023-08-12T00:58:36.721Z,68.90
2023-08-12T01:01:05.172Z,69.35
2023-08-12T01:03:33.053Z,69.19
2023-08-12T01:06:01.282Z,71.05
2023-08-12T01:08:32.112Z,72.20
2023-08-12T01:11:27.232Z,68.51
2023-08-12T01:14:18.970Z,67.28
2023-08-12T01:16:50.909Z,66.47
2023-08-12T01:19:37.849Z,65.92
2023-08-12T01:22:10.346Z,67.47
2023-08-12T01:24:41.140Z,67.64
2023-08-12T01:27:10.858Z,66.87
2023-08-12T01:29:42.448Z,66.52
2023-08-12T01:32:20.817Z,69.86
2023-08-12T01:35:07.862Z,70.50
2023-08-12T01:37:37.980Z,70.84
2023-08-12T01:40:07.607Z,69.59
2023-08-12T01:42:35.674Z,70.37
2023-08-12T01:45:04.096Z,70.67
2023-08-12T01:47:32.209Z,69.99
2023-08-12T01:50:00.111Z,70.44
2023-08-12T01:52:28.759Z,69.95
2023-08-12T01:54:56.620Z,70.28
2023-08-12T01:57:24.201Z,69.46
2023-08-12T01:59:53.274Z,71.53
2023-08-12T02:02:21.014Z,73.15
2023-08-12T02:04:48.659Z,74.50
2023-08-12T02:07:16.344Z,74.44
2023-08-12T02:09:44.322Z,75.36
2023-08-12T02:12:12.582Z,75.59
2023-08-12T02:14:40.242Z,75.86
2023-08-12T02:17:08.378Z,76.08
2023-08-12T02:19:37.431Z,77.78
2023-08-12T02:22:06.072Z,78.26
2023-08-12T02:24:34.179Z,78.39
2023-08-12T02:27:02.251Z,77.50
2023-08-12T02:29:29.855Z,76.51
2023-08-12T02:31:57.955Z,76.34
2023-08-12T02:34:25.615Z,77.62
2023-08-12T02:36:53.194Z,78.45
2023-08-12T02:39:20.878Z,79.31
2023-08-12T02:41:48.876Z,79.11
2023-08-12T02:44:16.982Z,79.94
2023-08-12T02:46:44.754Z,80.82
2023-08-12T02:49:12.896Z,82.18
2023-08-12T02:51:40.551Z,82.18
2023-08-12T02:54:08.593Z,80.61
2023-08-12T02:56:36.436Z,79.17
2023-08-12T02:59:04.625Z,78.68
2023-08-12T03:01:32.322Z,78.86
2023-08-12T03:04:00.597Z,80.62
2023-08-12T03:06:28.489Z,81.61
2023-08-12T03:08:56.879Z,81.88
2023-08-12T03:11:24.763Z,82.09
2023-08-12T03:13:53.152Z,82.81
2023-08-12T03:16:21.273Z,84.20
2023-08-12T03:18:49.005Z,84.89
2023-08-12T03:21:17.434Z,86.05
2023-08-12T03:23:45.825Z,86.77
2023-08-12T03:26:15.460Z,87.48
2023-08-12T03:28:43.451Z,87.10
2023-08-12T03:31:15.002Z,87.25
2023-08-12T03:33:43.691Z,86.60
2023-08-12T03:36:11.335Z,86.45
2023-08-12T03:38:39.104Z,87.07
2023-08-12T03:41:09.553Z,88.07
2023-08-12T03:43:38.904Z,87.48
2023-08-12T03:46:07.914Z,88.41
2023-08-12T03:48:35.613Z,87.41
2023-08-12T03:51:03.710Z,85.96
2023-08-12T03:53:31.486Z,86.05
2023-08-12T03:55:59.573Z,84.88
2023-08-12T03:58:28.490Z,84.61
2023-08-12T04:00:56.449Z,85.54
2023-08-12T04:03:24.443Z,85.67
2023-08-12T04:05:53.715Z,85.90
2023-08-12T04:08:24.449Z,85.27
2023-08-12T04:10:53.213Z,86.17
2023-08-12T04:13:20.839Z,86.54
2023-08-12T04:15:52.300Z,87.90
2023-08-12T04:18:20.958Z,88.59
2023-08-12T04:20:50.306Z,88.55
2023-08-12T04:23:19.140Z,87.95
2023-08-12T04:25:48.680Z,89.55
2023-08-12T04:28:17.773Z,89.54
2023-08-12T04:30:48.642Z,89.41
2023-08-12T04:33:18.275Z,89.17
2023-08-12T04:35:47.411Z,89.53
2023-08-12T04:38:17.196Z,87.87
2023-08-12T04:40:45.544Z,87.19
2023-08-12T04:43:14.741Z,86.53
2023-08-12T04:45:47.089Z,85.43
2023-08-12T04:48:15.936Z,87.20
2023-08-12T04:50:44.399Z,87.30
2023-08-12T04:53:12.499Z,86.59
2023-08-12T04:55:41.105Z,86.25
2023-08-12T04:58:09.718Z,86.88
2023-08-12T05:00:38.421Z,87.34
2023-08-12T05:03:06.109Z,86.97
2023-08-12T05:05:33.772Z,86.62
2023-08-12T05:08:01.953Z,87.47
2023-08-12T05:10:29.843Z,85.40
2023-08-12T05:12:59.467Z,84.02
2023-08-12T05:15:27.788Z,83.55
2023-08-12T05:17:56.539Z,85.46
2023-08-12T05:20:25.082Z,84.59
2023-08-12T05:22:53.212Z,84.35
2023-08-12T05:25:20.827Z,83.32
2023-08-12T05:27:48.435Z,82.86
2023-08-12T05:30:16.054Z,84.77
2023-08-12T05:32:44.502Z,85.41
2023-08-12T05:35:12.662Z,84.38
2023-08-12T05:37:40.814Z,82.45
2023-08-12T05:40:10.694Z,79.88
2023-08-12T05:42:38.319Z,78.70
2023-08-12T05:45:08.580Z,78.10
2023-08-12T05:47:36.658Z,78.20
2023-08-12T05:50:05.112Z,77.00
2023-08-12T05:52:32.823Z,76.13
2023-08-12T05:55:00.829Z,74.21
2023-08-12T05:57:29.821Z,71.99
2023-08-12T05:59:58.017Z,70.76
2023-08-12T06:02:26.870Z,69.54
2023-08-12T06:04:54.570Z,67.60
2023-08-12T06:07:22.434Z,67.56
2023-08-12T06:09:51.954Z,64.92
2023-08-12T06:12:19.605Z,65.16
2023-08-12T06:14:47.431Z,61.90
2023-08-12T06:17:14.955Z,63.95
2023-08-12T06:19:43.005Z,61.69
2023-08-12T06:22:11.175Z,65.85
2023-08-12T06:24:39.501Z,66.83
2023-08-12T06:27:07.196Z,65.74
2023-08-12T06:29:34.805Z,63.51
2023-08-12T06:32:02.379Z,63.34
2023-08-12T06:34:29.941Z,61.20
2023-08-12T06:36:57.644Z,61.99
2023-08-12T06:39:26.125Z,60.36
2023-08-12T06:41:54.170Z,61.17
2023-08-12T06:44:21.874Z,60.54
2023-08-12T06:46:49.467Z,61.49
2023-08-12T06:49:17.677Z,59.31
2023-08-12T06:51:45.215Z,59.17
2023-08-12T06:54:13.258Z,57.11
2023-08-12T06:56:40.868Z,57.00
2023-08-12T06:59:08.829Z,56.23
2023-08-12T07:01:36.456Z,54.81
2023-08-12T07:04:04.567Z,52.68
2023-08-12T07:06:32.221Z,52.94
2023-08-12T07:08:59.912Z,54.18
2023-08-12T07:11:27.495Z,52.74
2023-08-12T07:13:55.485Z,52.18
2023-08-12T07:16:23.059Z,52.07
2023-08-12T07:18:51.011Z,53.86
2023-08-12T07:21:18.995Z,55.30
2023-08-12T07:23:58.477Z,54.07
2023-08-12T07:26:31.617Z,52.94
2023-08-12T07:28:59.225Z,52.29
2023-08-12T07:31:27.351Z,51.36
2023-08-12T07:33:55.115Z,50.51
2023-08-12T07:36:23.554Z,49.80
2023-08-12T07:38:51.181Z,49.04
2023-08-12T07:41:19.274Z,49.68
2023-08-12T07:43:46.891Z,51.30
2023-08-12T07:46:14.888Z,50.80
2023-08-12T07:48:42.451Z,48.60
2023-08-12T07:51:10.463Z,49.35
2023-08-12T07:53:38.433Z,49.88
2023-08-12T07:56:06.128Z,50.07
2023-08-12T07:58:34.087Z,49.41
2023-08-12T08:01:01.623Z,49.59
2023-08-12T08:03:29.420Z,50.63
2023-08-12T08:05:57.466Z,48.07
2023-08-12T08:08:25.481Z,47.49
2023-08-12T08:10:53.097Z,46.39
2023-08-12T08:13:20.626Z,45.81
2023-08-12T08:15:48.465Z,43.05
2023-08-12T08:18:16.114Z,42.06
2023-08-12T08:20:45.903Z,44.18
2023-08-12T08:23:14.166Z,45.34
2023-08-12T08:25:42.397Z,46.34
2023-08-12T08:28:10.385Z,44.39
2023-08-12T08:30:38.185Z,43.13
2023-08-12T08:33:06.598Z,43.58
2023-08-12T08:35:34.255Z,42.53
2023-08-12T08:38:01.926Z,41.72
2023-08-12T08:40:29.567Z,42.12
2023-08-12T08:43:01.979Z,44.16
2023-08-12T08:45:33.103Z,43.77
2023-08-12T08:48:02.777Z,45.52
2023-08-12T08:50:32.458Z,45.95
2023-08-12T08:53:04.167Z,44.45
2023-08-12T08:55:32.235Z,43.87
2023-08-12T08:58:05.486Z,44.46
2023-08-12T09:00:33.739Z,45.00
2023-08-12T09:03:03.752Z,45.50
2023-08-12T09:05:33.262Z,44.45
2023-08-12T09:08:02.925Z,43.72
2023-08-12T09:10:31.664Z,42.77
2023-08-12T09:13:00.053Z,43.64
2023-08-12T09:15:27.729Z,45.94
2023-08-12T09:17:55.458Z,44.53
2023-08-12T09:20:23.534Z,45.44
2023-08-12T09:23:01.588Z,45.75
2023-08-12T09:25:31.209Z,45.78
2023-08-12T09:28:02.940Z,44.89
2023-08-12T09:30:32.478Z,44.24
2023-08-12T09:33:05.249Z,44.21
2023-08-12T09:35:36.088Z,43.53
2023-08-12T09:38:06.507Z,43.35
2023-08-12T09:40:37.625Z,42.53
2023-08-12T09:43:05.402Z,41.70
2023-08-12T09:45:35.033Z,42.44
2023-08-12T09:48:03.748Z,44.25
2023-08-12T09:50:31.860Z,44.67
2023-08-12T09:53:02.212Z,41.93
2023-08-12T09:55:32.884Z,42.85
2023-08-12T09:58:01.336Z,43.42
2023-08-12T10:00:29.113Z,42.60
2023-08-12T10:02:56.964Z,40.87
2023-08-12T10:05:28.370Z,41.23
2023-08-12T10:07:56.693Z,40.25
2023-08-12T10:10:24.318Z,40.08
2023-08-12T10:12:52.846Z,40.82
2023-08-12T10:15:21.064Z,37.68
2023-08-12T10:17:49.984Z,37.36
2023-08-12T10:20:24.029Z,35.77
2023-08-12T10:22:52.769Z,35.83
2023-08-12T10:25:23.772Z,34.19
2023-08-12T10:27:51.431Z,36.96
2023-08-12T10:30:21.447Z,35.45
2023-08-12T10:32:49.254Z,33.48
2023-08-12T10:35:17.084Z,31.82
2023-08-12T10:37:50.749Z,33.23
2023-08-12T10:40:23.481Z,33.60
2023-08-12T10:42:51.890Z,33.00
2023-08-12T10:45:20.061Z,31.85
2023-08-12T10:48:16.533Z,30.73
2023-08-12T10:50:50.531Z,32.11
2023-08-12T10:53:30.793Z,32.20
2023-08-12T10:56:01.459Z,32.03
2023-08-12T10:58:37.224Z,30.92
2023-08-12T11:01:15.415Z,30.41
2023-08-12T11:03:44.530Z,32.83
2023-08-12T11:06:12.833Z,32.28
2023-08-12T11:08:54.674Z,30.12
2023-08-12T11:11:24.985Z,29.43
2023-08-12T11:13:57.918Z,29.36
2023-08-12T11:16:39.186Z,30.47
2023-08-12T11:19:09.329Z,29.97
2023-08-12T11:21:37.823Z,30.68
2023-08-12T11:24:05.939Z,29.63
2023-08-12T11:26:33.701Z,31.73
2023-08-12T11:29:01.457Z,31.46
2023-08-12T11:31:29.558Z,31.95
2023-08-12T11:33:57.768Z,33.10
2023-08-12T11:36:25.474Z,34.16
2023-08-12T11:38:53.134Z,33.06
2023-08-12T11:41:24.020Z,31.77
2023-08-12T11:43:51.643Z,31.23
2023-08-12T11:46:19.490Z,29.72
2023-08-12T11:48:48.378Z,29.37
2023-08-12T11:51:17.235Z,29.98
2023-08-12T11:53:45.031Z,31.12
2023-08-12T11:56:12.702Z,32.20
2023-08-12T11:58:52.384Z,30.89
2023-08-12T12:01:25.926Z,30.93
2023-08-12T12:03:54.280Z,32.69
2023-08-12T12:06:38.580Z,30.67
2023-08-12T12:09:11.445Z,29.58
2023-08-12T12:11:40.099Z,29.07
2023-08-12T12:14:09.758Z,28.53
2023-08-12T12:16:45.447Z,28.22
2023-08-12T12:19:21.776Z,29.12
2023-08-12T12:21:54.395Z,27.90
2023-08-12T12:24:22.790Z,27.52
2023-08-12T12:26:50.600Z,27.42
2023-08-12T12:29:18.642Z,26.68
2023-08-12T12:31:46.660Z,25.95
2023-08-12T12:34:15.550Z,26.39
2023-08-12T12:36:43.316Z,28.05
2023-08-12T12:39:10.918Z,27.10
2023-08-12T12:41:38.561Z,26.67
2023-08-12T12:44:07.080Z,25.65
2023-08-12T12:46:34.950Z,25.45
2023-08-12T12:49:02.982Z,25.02
2023-08-12T12:51:31.245Z,25.78
2023-08-12T12:53:59.036Z,24.90
2023-08-12T12:56:26.690Z,25.25
2023-08-12T12:58:54.227Z,25.10
2023-08-12T13:01:22.491Z,24.76
2023-08-12T13:03:50.122Z,24.39
2023-08-12T13:06:17.834Z,24.58
2023-08-12T13:08:45.508Z,23.18
2023-08-12T13:11:13.036Z,22.47
2023-08-12T13:13:40.618Z,20.96
2023-08-12T13:16:09.549Z,22.13
2023-08-12T13:18:37.348Z,23.26
2023-08-12T13:21:04.904Z,22.99
2023-08-12T13:23:32.756Z,22.54
2023-08-12T13:26:00.896Z,22.22
2023-08-12T13:28:29.179Z,21.73
2023-08-12T13:30:57.259Z,21.39
2023-08-12T13:33:24.825Z,23.33
2023-08-12T13:35:52.485Z,22.43
2023-08-12T13:38:20.718Z,22.88
2023-08-12T13:40:49.866Z,21.92
2023-08-12T13:43:17.429Z,21.26
2023-08-12T13:45:45.511Z,20.29
2023-08-12T13:48:13.138Z,20.61
2023-08-12T13:50:41.090Z,21.86
2023-08-12T13:53:09.148Z,23.17
2023-08-12T13:55:36.811Z,21.97
2023-08-12T13:58:04.595Z,22.07
2023-08-12T14:00:32.342Z,23.16
2023-08-12T14:03:00.364Z,20.91
2023-08-12T14:05:28.496Z,20.34
2023-08-12T14:07:57.039Z,19.15
2023-08-12T14:10:25.189Z,19.99
2023-08-12T14:12:53.244Z,21.55
2023-08-12T14:15:21.063Z,21.88
2023-08-12T14:17:48.738Z,21.67
2023-08-12T14:20:16.629Z,20.26
2023-08-12T14:22:47.222Z,20.34
2023-08-12T14:25:14.808Z,22.47
2023-08-12T14:27:42.758Z,20.38
2023-08-12T14:30:11.103Z,19.86
2023-08-12T14:32:39.523Z,19.05
2023-08-12T14:35:07.719Z,21.73
2023-08-12T14:37:35.864Z,19.91
2023-08-12T14:40:04.166Z,20.47
2023-08-12T14:42:31.802Z,21.01
2023-08-12T14:44:59.609Z,19.64
2023-08-12T14:47:27.673Z,19.25
2023-08-12T14:49:56.120Z,22.24
2023-08-12T14:52:24.156Z,22.04
2023-08-12T14:54:52.185Z,24.28
2023-08-12T14:57:19.912Z,21.87
2023-08-12T14:59:51.671Z,20.90
2023-08-12T15:02:26.061Z,21.44
2023-08-12T15:04:54.616Z,21.12
2023-08-12T15:07:23.231Z,20.64
2023-08-12T15:09:52.426Z,20.86
2023-08-12T15:12:20.077Z,22.54
2023-08-12T15:14:48.226Z,21.82
2023-08-12T15:17:16.469Z,20.48
2023-08-12T15:19:44.926Z,20.35
2023-08-12T15:22:12.487Z,20.71
2023-08-12T15:24:40.184Z,21.96
2023-08-12T15:27:07.771Z,23.31
2023-08-12T15:29:35.427Z,24.06
2023-08-12T15:32:04.516Z,22.78
2023-08-12T15:34:32.954Z,23.19
2023-08-12T15:37:00.616Z,21.67
2023-08-12T15:39:28.778Z,22.38
2023-08-12T15:41:56.369Z,20.81
2023-08-12T15:44:24.420Z,22.65
2023-08-12T15:46:52.028Z,24.34
2023-08-12T15:49:20.140Z,22.60
2023-08-12T15:51:47.729Z,22.93
2023-08-12T15:54:15.273Z,23.20
2023-08-12T15:56:44.375Z,23.32
2023-08-12T15:59:11.987Z,23.37
2023-08-12T16:01:40.104Z,21.84
2023-08-12T16:04:08.154Z,23.83
2023-08-12T16:06:35.689Z,24.28
2023-08-12T16:09:16.872Z,24.48
2023-08-12T16:11:45.853Z,23.24
2023-08-12T16:14:13.833Z,22.20
2023-08-12T16:16:41.760Z,22.75
2023-08-12T16:19:09.398Z,23.29
2023-08-12T16:21:37.415Z,23.29
2023-08-12T16:24:05.219Z,26.63
2023-08-12T16:26:32.832Z,25.45
2023-08-12T16:29:01.293Z,25.60
2023-08-12T16:31:31.572Z,25.90
2023-08-12T16:33:59.272Z,25.84
2023-08-12T16:36:26.827Z,26.55
2023-08-12T16:38:54.468Z,27.36
2023-08-12T16:41:22.126Z,28.76
2023-08-12T16:43:49.790Z,28.52
2023-08-12T16:46:17.492Z,26.20
2023-08-12T16:48:45.521Z,26.54
2023-08-12T16:51:13.680Z,27.46
2023-08-12T16:53:41.467Z,26.09
2023-08-12T16:56:09.012Z,27.21
2023-08-12T16:58:36.733Z,28.54
2023-08-12T17:01:05.137Z,29.76
2023-08-12T17:03:32.804Z,29.86
2023-08-12T17:06:01.582Z,29.19
2023-08-12T17:08:30.522Z,28.59
2023-08-12T17:10:58.141Z,27.50
2023-08-12T17:13:25.698Z,29.42
2023-08-12T17:15:53.301Z,29.40
2023-08-12T17:18:21.329Z,29.46
2023-08-12T17:20:49.314Z,30.37
2023-08-12T17:23:16.939Z,31.25
2023-08-12T17:25:44.708Z,31.40
2023-08-12T17:28:12.549Z,33.45
2023-08-12T17:30:40.223Z,34.32
2023-08-12T17:33:07.846Z,34.53
2023-08-12T17:35:35.477Z,34.29
2023-08-12T17:38:03.183Z,35.25
2023-08-12T17:40:31.211Z,36.34
2023-08-12T17:42:58.817Z,36.62
2023-08-12T17:45:26.594Z,39.14
2023-08-12T17:47:59.979Z,39.99
2023-08-12T17:50:28.642Z,40.07
2023-08-12T17:52:57.183Z,40.76
2023-08-12T17:55:25.133Z,40.63
2023-08-12T17:57:53.484Z,42.02
2023-08-12T18:00:22.955Z,41.61
2023-08-12T18:02:50.563Z,41.94
2023-08-12T18:05:18.356Z,42.51
2023-08-12T18:07:47.439Z,42.88
2023-08-12T18:10:15.515Z,43.36
2023-08-12T18:12:43.136Z,43.90
2023-08-12T18:15:10.798Z,44.47
2023-08-12T18:17:38.963Z,44.13
2023-08-12T18:20:07.255Z,44.64
2023-08-12T18:22:34.754Z,44.38
2023-08-12T18:25:02.345Z,44.66
2023-08-12T18:27:30.620Z,45.03
2023-08-12T18:29:58.216Z,46.01
2023-08-12T18:32:28.418Z,45.83
2023-08-12T18:34:57.268Z,45.51
2023-08-12T18:37:24.838Z,44.77
2023-08-12T18:39:52.630Z,44.56
2023-08-12T18:42:20.363Z,45.20
2023-08-12T18:44:48.438Z,44.69
2023-08-12T18:47:17.792Z,45.70
2023-08-12T18:49:45.601Z,45.29
2023-08-12T18:52:14.871Z,45.94
2023-08-12T18:54:43.065Z,45.94
2023-08-12T18:57:10.701Z,45.99
2023-08-12T18:59:38.805Z,46.72
2023-08-12T19:02:07.128Z,46.78
2023-08-12T19:04:35.292Z,47.13
2023-08-12T19:07:03.041Z,47.02
2023-08-12T19:09:31.224Z,47.32
2023-08-12T19:11:58.796Z,47.83
2023-08-12T19:14:26.433Z,49.71
2023-08-12T19:16:55.129Z,52.21
2023-08-12T19:19:23.175Z,54.39
2023-08-12T19:21:50.746Z,56.24
2023-08-12T19:24:18.810Z,60.52
2023-08-12T19:26:46.380Z,64.60
2023-08-12T19:29:14.457Z,66.62
2023-08-12T19:31:42.143Z,69.52
2023-08-12T19:34:10.283Z,70.46
2023-08-12T19:36:37.905Z,69.65
2023-08-12T19:39:06.207Z,71.66
2023-08-12T19:41:33.854Z,73.49
2023-08-12T19:44:01.414Z,73.86
2023-08-12T19:46:29.901Z,74.83
2023-08-12T19:48:59.314Z,75.18
2023-08-12T19:51:26.934Z,76.92
2023-08-12T19:53:54.646Z,76.34
2023-08-12T19:56:22.555Z,76.12
2023-08-12T19:58:50.649Z,76.56
2023-08-12T20:01:18.272Z,76.30
2023-08-12T20:03:45.955Z,75.71
2023-08-12T20:06:13.583Z,78.33
2023-08-12T20:08:41.595Z,78.39
2023-08-12T20:11:09.262Z,78.70
2023-08-12T20:13:37.999Z,79.49
2023-08-12T20:16:05.617Z,80.36
2023-08-12T20:18:33.207Z,79.43
2023-08-12T20:21:01.033Z,79.56
2023-08-12T20:23:29.044Z,78.50
2023-08-12T20:25:57.037Z,79.20
2023-08-12T20:28:25.465Z,81.04
2023-08-12T20:30:53.499Z,81.11
2023-08-12T20:33:21.228Z,79.81
2023-08-12T20:35:49.009Z,79.80
2023-08-12T20:38:19.373Z,79.72
2023-08-12T20:40:47.076Z,78.90
2023-08-12T20:43:15.123Z,79.87
2023-08-12T20:45:43.138Z,77.76
2023-08-12T20:48:11.125Z,77.78
2023-08-12T20:50:38.684Z,75.66
2023-08-12T20:53:06.303Z,75.48
2023-08-12T20:55:33.949Z,76.75
2023-08-12T20:58:01.920Z,77.03
2023-08-12T21:00:30.243Z,76.54
2023-08-12T21:02:58.317Z,76.91
2023-08-12T21:05:26.386Z,75.16
2023-08-12T21:07:53.978Z,76.62
2023-08-12T21:10:21.823Z,77.77
2023-08-12T21:12:49.430Z,79.31
2023-08-12T21:15:16.978Z,79.03
2023-08-12T21:17:44.561Z,79.35
2023-08-12T21:20:12.535Z,78.73
2023-08-12T21:22:40.305Z,76.74
2023-08-12T21:25:08.220Z,76.47
2023-08-12T21:27:36.250Z,78.76
2023-08-12T21:30:04.528Z,80.02
2023-08-12T21:32:32.433Z,80.62
2023-08-12T21:35:00.599Z,78.25
2023-08-12T21:37:28.583Z,76.39
2023-08-12T21:39:56.525Z,75.40
2023-08-12T21:42:24.177Z,73.72
2023-08-12T21:44:52.215Z,72.35
2023-08-12T21:47:19.777Z,72.18
2023-08-12T21:49:47.828Z,73.77
2023-08-12T21:52:15.836Z,75.33
2023-08-12T21:54:44.476Z,74.91
2023-08-12T21:57:12.146Z,74.36
2023-08-12T21:59:40.249Z,75.25
2023-08-12T22:02:08.763Z,76.71
2023-08-12T22:04:36.277Z,76.95
2023-08-12T22:07:05.633Z,76.69
2023-08-12T22:09:35.414Z,77.54
2023-08-12T22:12:03.093Z,78.04
2023-08-12T22:14:31.281Z,78.65
2023-08-12T22:16:59.371Z,78.84
2023-08-12T22:19:29.725Z,79.63
2023-08-12T22:22:05.401Z,80.50
2023-08-12T22:24:41.149Z,80.52
2023-08-12T22:27:09.238Z,81.26
2023-08-12T22:29:37.279Z,79.81
2023-08-12T22:32:05.070Z,79.55
2023-08-12T22:34:32.665Z,79.65
2023-08-12T22:37:00.327Z,79.06
2023-08-12T22:39:27.941Z,79.03
2023-08-12T22:41:56.383Z,78.01
2023-08-12T22:44:23.942Z,78.06
2023-08-12T22:46:51.577Z,77.72
2023-08-12T22:49:20.089Z,76.93
2023-08-12T22:51:47.687Z,77.13
2023-08-12T22:54:16.286Z,78.67
2023-08-12T22:56:43.830Z,78.28
2023-08-12T22:59:11.593Z,78.59
2023-08-12T23:01:39.158Z,78.52
2023-08-12T23:04:07.677Z,78.53
2023-08-12T23:06:35.272Z,78.26
2023-08-12T23:09:02.984Z,79.23
2023-08-12T23:11:31.001Z,79.90
2023-08-12T23:13:58.555Z,80.43
2023-08-12T23:16:26.648Z,81.83
2023-08-12T23:18:54.275Z,80.83
2023-08-12T23:21:21.870Z,80.50
2023-08-12T23:23:49.598Z,81.08
2023-08-12T23:26:18.297Z,83.17
2023-08-12T23:28:45.937Z,83.51
2023-08-12T23:31:13.483Z,82.07
2023-08-12T23:33:41.153Z,82.72
2023-08-12T23:36:09.723Z,82.68
2023-08-12T23:38:38.282Z,83.99
2023-08-12T23:41:05.811Z,83.77
2023-08-12T23:43:33.656Z,83.99
2023-08-12T23:46:01.544Z,82.56
2023-08-12T23:48:29.190Z,82.81
2023-08-12T23:50:57.030Z,83.07
2023-08-12T23:53:25.411Z,83.29
2023-08-12T23:55:53.097Z,83.47
2023-08-12T23:58:20.775Z,83.17
